createdAt,value
2019-02-23T00:01:25.339Z,16.10
2019-02-23T00:03:58.848Z,16.55
2019-02-23T00:06:31.604Z,17.82
2019-02-23T00:09:05.794Z,14.75
2019-02-23T00:11:40.988Z,15.05
2019-02-23T00:14:14.373Z,15.75
2019-02-23T00:16:47.169Z,16.30
2019-02-23T00:19:24.956Z,15.10
2019-02-23T00:21:55.616Z,14.93
2019-02-23T00:24:28.711Z,14.90
2019-02-23T00:27:01.756Z,15.15
2019-02-23T00:29:34.819Z,14.83
2019-02-23T00:32:07.837Z,15.03
2019-02-23T00:34:41.463Z,13.68
2019-02-23T00:37:15.262Z,15.55
2019-02-23T00:39:50.202Z,13.28
2019-02-23T00:42:24.073Z,15.20
2019-02-23T00:44:57.939Z,15.20
2019-02-23T00:47:31.294Z,14.63
2019-02-23T00:50:04.582Z,15.90
2019-02-23T00:52:37.679Z,16.60
2019-02-23T00:55:09.915Z,14.53
2019-02-23T00:57:42.852Z,13.32
2019-02-23T01:00:16.922Z,14.70
2019-02-23T01:02:50.364Z,15.88
2019-02-23T01:05:23.762Z,16.25
2019-02-23T01:07:57.065Z,14.93
2019-02-23T01:10:30.515Z,12.60
2019-02-23T01:13:03.969Z,16.52
2019-02-23T01:15:37.196Z,13.75
2019-02-23T01:18:09.461Z,14.65
2019-02-23T01:20:42.391Z,14.65
2019-02-23T01:23:15.360Z,15.05
2019-02-23T01:25:48.666Z,14.58
2019-02-23T01:28:22.590Z,11.85
2019-02-23T01:30:55.192Z,15.18
2019-02-23T01:33:27.843Z,13.53
2019-02-23T01:36:01.133Z,13.72
2019-02-23T01:38:34.293Z,12.65
2019-02-23T01:41:09.360Z,12.45
2019-02-23T01:43:42.777Z,13.03
2019-02-23T01:46:15.760Z,13.45
2019-02-23T01:48:49.653Z,12.35
2019-02-23T01:51:23.528Z,12.90
2019-02-23T01:53:56.998Z,13.45
2019-02-23T01:56:29.956Z,12.93
2019-02-23T01:59:03.044Z,14.35
2019-02-23T02:01:35.711Z,12.80
2019-02-23T02:04:08.676Z,12.80
2019-02-23T02:06:42.372Z,13.72
2019-02-23T02:09:15.824Z,12.78
2019-02-23T02:11:49.021Z,15.43
2019-02-23T02:14:22.397Z,13.68
2019-02-23T02:16:55.417Z,13.10
2019-02-23T02:19:27.971Z,12.65
2019-02-23T02:22:00.956Z,14.73
2019-02-23T02:24:33.511Z,12.68
2019-02-23T02:27:07.041Z,14.13
2019-02-23T02:29:40.431Z,13.60
2019-02-23T02:32:13.774Z,14.80
2019-02-23T02:34:46.842Z,12.98
2019-02-23T02:37:20.210Z,12.98
2019-02-23T02:39:53.697Z,13.58
2019-02-23T02:42:26.746Z,12.93
2019-02-23T02:45:00.054Z,13.20
2019-02-23T02:47:33.214Z,13.38
2019-02-23T02:50:07.055Z,12.13
2019-02-23T02:52:39.765Z,13.13
2019-02-23T02:55:12.872Z,14.15
2019-02-23T02:57:46.056Z,12.58
2019-02-23T03:00:19.866Z,12.80
2019-02-23T03:02:53.809Z,11.33
2019-02-23T03:05:27.056Z,13.35
2019-02-23T03:08:00.453Z,12.15
2019-02-23T03:10:33.485Z,11.70
2019-02-23T03:13:06.821Z,12.65
2019-02-23T03:15:39.570Z,11.33
2019-02-23T03:18:13.243Z,11.25
2019-02-23T03:20:47.731Z,11.80
2019-02-23T03:23:21.135Z,12.00
2019-02-23T03:25:54.456Z,12.53
2019-02-23T03:28:28.251Z,12.82
2019-02-23T03:31:01.046Z,12.35
2019-02-23T03:33:34.502Z,12.98
2019-02-23T03:36:07.835Z,14.23
2019-02-23T03:38:40.428Z,13.65
2019-02-23T03:41:13.464Z,12.98
2019-02-23T03:43:46.240Z,14.33
2019-02-23T03:46:18.921Z,12.82
2019-02-23T03:48:52.253Z,12.85
2019-02-23T03:51:25.634Z,12.58
2019-02-23T03:53:59.082Z,14.63
2019-02-23T03:56:33.105Z,12.10
2019-02-23T03:59:06.161Z,12.55
2019-02-23T04:01:39.125Z,13.53
2019-02-23T04:04:12.537Z,12.25
2019-02-23T04:06:44.861Z,13.38
2019-02-23T04:09:18.127Z,12.40
2019-02-23T04:11:51.092Z,13.10
2019-02-23T04:14:24.913Z,13.22
2019-02-23T04:16:57.891Z,13.25
2019-02-23T04:19:31.053Z,13.65
2019-02-23T04:22:04.297Z,13.30
2019-02-23T04:24:37.461Z,14.00
2019-02-23T04:27:10.514Z,14.83
2019-02-23T04:29:46.821Z,15.05
2019-02-23T04:32:18.796Z,15.23
2019-02-23T04:34:52.074Z,13.72
2019-02-23T04:37:24.700Z,16.02
2019-02-23T04:39:57.670Z,15.40
2019-02-23T04:42:30.344Z,15.63
2019-02-23T04:45:02.905Z,15.75
2019-02-23T04:47:35.819Z,16.20
2019-02-23T04:50:09.470Z,16.05
2019-02-23T04:52:42.690Z,15.23
2019-02-23T04:55:16.006Z,15.23
2019-02-23T04:57:49.306Z,14.70
2019-02-23T05:00:22.671Z,15.03
2019-02-23T05:02:55.849Z,15.30
2019-02-23T05:05:29.653Z,14.58
2019-02-23T05:08:03.037Z,15.45
2019-02-23T05:10:36.081Z,15.95
2019-02-23T05:13:09.149Z,15.30
2019-02-23T05:15:42.938Z,16.00
2019-02-23T05:18:16.686Z,14.87
2019-02-23T05:20:49.639Z,15.65
2019-02-23T05:23:23.187Z,15.38
2019-02-23T05:25:56.634Z,13.78
2019-02-23T05:28:29.656Z,15.58
2019-02-23T05:31:03.365Z,15.95
2019-02-23T05:33:36.369Z,16.20
2019-02-23T05:36:10.249Z,14.78
2019-02-23T05:38:43.516Z,15.98
2019-02-23T05:41:16.568Z,15.43
2019-02-23T05:43:49.591Z,15.50
2019-02-23T05:46:22.894Z,14.63
2019-02-23T05:48:56.283Z,16.73
2019-02-23T05:51:38.283Z,16.10
2019-02-23T05:54:03.570Z,14.90
2019-02-23T05:56:36.212Z,14.95
2019-02-23T05:59:08.928Z,16.40
2019-02-23T06:01:42.337Z,15.78
2019-02-23T06:04:16.094Z,17.15
2019-02-23T06:06:49.784Z,17.85
2019-02-23T06:09:23.097Z,16.17
2019-02-23T06:11:56.651Z,16.97
2019-02-23T06:14:31.077Z,17.20
2019-02-23T06:17:04.367Z,15.85
2019-02-23T06:19:37.849Z,17.40
2019-02-23T06:22:10.902Z,16.05
2019-02-23T06:24:43.959Z,14.85
2019-02-23T06:27:17.024Z,18.00
2019-02-23T06:29:50.455Z,17.95
2019-02-23T06:32:23.411Z,15.48
2019-02-23T06:34:56.415Z,16.65
2019-02-23T06:37:29.508Z,16.82
2019-02-23T06:40:03.271Z,18.60
2019-02-23T06:42:36.940Z,19.07
2019-02-23T06:45:09.619Z,15.23
2019-02-23T06:47:43.517Z,18.17
2019-02-23T06:50:17.432Z,17.50
2019-02-23T06:52:50.965Z,17.52
2019-02-23T06:55:23.986Z,20.30
2019-02-23T06:57:56.896Z,18.75
2019-02-23T07:00:30.383Z,19.00
2019-02-23T07:03:03.603Z,16.55
2019-02-23T07:05:36.692Z,19.87
2019-02-23T07:08:10.182Z,18.77
2019-02-23T07:10:43.623Z,17.95
2019-02-23T07:13:16.218Z,19.52
2019-02-23T07:15:49.737Z,20.55
2019-02-23T07:18:23.128Z,19.80
2019-02-23T07:20:58.031Z,19.92
2019-02-23T07:23:30.552Z,18.32
2019-02-23T07:26:03.973Z,17.35
2019-02-23T07:28:36.654Z,18.75
2019-02-23T07:31:09.926Z,20.40
2019-02-23T07:33:42.907Z,20.37
2019-02-23T07:36:16.341Z,17.45
2019-02-23T07:38:49.314Z,20.82
2019-02-23T07:41:22.586Z,20.27
2019-02-23T07:43:55.976Z,20.70
2019-02-23T07:46:29.039Z,19.77
2019-02-23T07:49:02.694Z,20.30
2019-02-23T07:51:35.968Z,17.23
2019-02-23T07:54:09.592Z,18.62
2019-02-23T07:56:42.984Z,16.73
2019-02-23T07:59:16.057Z,19.35
2019-02-23T08:01:49.222Z,19.55
2019-02-23T08:04:22.259Z,19.77
2019-02-23T08:06:55.622Z,17.85
2019-02-23T08:09:28.717Z,16.90
2019-02-23T08:12:02.398Z,19.17
2019-02-23T08:14:35.679Z,18.52
2019-02-23T08:17:08.719Z,21.12
2019-02-23T08:19:42.215Z,17.87
2019-02-23T08:22:15.710Z,19.27
2019-02-23T08:24:49.017Z,18.98
2019-02-23T08:27:22.672Z,21.55
2019-02-23T08:29:56.176Z,19.80
2019-02-23T08:32:29.301Z,20.02
2019-02-23T08:35:02.768Z,18.17
2019-02-23T08:37:35.701Z,19.80
2019-02-23T08:40:09.623Z,19.55
2019-02-23T08:42:43.138Z,21.10
2019-02-23T08:45:16.335Z,20.00
2019-02-23T08:47:49.094Z,20.35
2019-02-23T08:50:21.792Z,20.27
2019-02-23T08:52:55.412Z,19.95
2019-02-23T08:55:28.441Z,21.68
2019-02-23T08:58:01.537Z,19.98
2019-02-23T09:00:34.619Z,21.97
2019-02-23T09:03:08.636Z,18.15
2019-02-23T09:05:42.613Z,21.97
2019-02-23T09:08:16.061Z,20.35
2019-02-23T09:10:52.093Z,19.05
2019-02-23T09:13:25.106Z,19.32
2019-02-23T09:15:59.281Z,18.65
2019-02-23T09:18:33.234Z,20.70
2019-02-23T09:21:07.087Z,23.95
2019-02-23T09:23:40.435Z,19.52
2019-02-23T09:26:14.279Z,19.60
2019-02-23T09:28:47.328Z,18.75
2019-02-23T09:31:20.017Z,18.30
2019-02-23T09:33:53.478Z,20.60
2019-02-23T09:36:27.986Z,19.27
2019-02-23T09:39:01.513Z,21.40
2019-02-23T09:41:36.879Z,19.62
2019-02-23T09:44:10.581Z,21.07
2019-02-23T09:46:44.171Z,21.80
2019-02-23T09:49:16.923Z,19.52
2019-02-23T09:51:49.946Z,19.62
2019-02-23T09:54:22.929Z,21.50
2019-02-23T09:56:55.979Z,20.15
2019-02-23T09:59:29.440Z,21.17
2019-02-23T10:02:02.615Z,18.62
2019-02-23T10:04:35.513Z,20.45
2019-02-23T10:07:10.226Z,19.35
2019-02-23T10:09:43.407Z,21.33
2019-02-23T10:12:16.857Z,19.42
2019-02-23T10:14:52.105Z,19.55
2019-02-23T10:17:25.350Z,18.42
2019-02-23T10:19:59.295Z,19.20
2019-02-23T10:22:32.691Z,19.85
2019-02-23T10:25:05.728Z,19.62
2019-02-23T10:27:42.102Z,19.62
2019-02-23T10:30:14.992Z,19.52
2019-02-23T10:32:47.422Z,18.62
2019-02-23T10:35:20.531Z,20.02
2019-02-23T10:37:53.616Z,19.40
2019-02-23T10:40:26.828Z,21.27
2019-02-23T10:42:59.428Z,21.48
2019-02-23T10:45:33.124Z,20.57
2019-02-23T10:48:06.229Z,19.65
2019-02-23T10:50:39.312Z,19.37
2019-02-23T10:53:12.459Z,19.55
2019-02-23T10:55:47.942Z,19.50
2019-02-23T10:58:21.141Z,18.87
2019-02-23T11:00:54.429Z,17.87
2019-02-23T11:03:28.942Z,17.12
2019-02-23T11:06:03.326Z,18.07
2019-02-23T11:08:36.569Z,17.92
2019-02-23T11:11:10.201Z,18.82
2019-02-23T11:13:44.016Z,18.32
2019-02-23T11:16:16.610Z,18.00
2019-02-23T11:18:50.556Z,19.87
2019-02-23T11:21:23.651Z,18.05
2019-02-23T11:23:57.391Z,18.25
2019-02-23T11:26:30.510Z,17.65
2019-02-23T11:29:03.975Z,17.52
2019-02-23T11:31:36.738Z,17.27
2019-02-23T11:34:10.613Z,16.80
2019-02-23T11:36:43.714Z,17.02
2019-02-23T11:39:16.889Z,17.00
2019-02-23T11:41:50.432Z,17.40
2019-02-23T11:44:23.085Z,16.60
2019-02-23T11:47:00.337Z,17.20
2019-02-23T11:49:31.219Z,16.67
2019-02-23T11:52:04.315Z,16.40
2019-02-23T11:54:38.225Z,16.00
2019-02-23T11:57:11.065Z,16.00
2019-02-23T11:59:44.411Z,17.25
2019-02-23T12:02:18.009Z,16.20
2019-02-23T12:04:51.611Z,14.83
2019-02-23T12:07:25.483Z,14.98
2019-02-23T12:09:58.169Z,15.55
2019-02-23T12:12:31.673Z,16.40
2019-02-23T12:15:04.589Z,14.87
2019-02-23T12:17:40.027Z,14.15
2019-02-23T12:20:13.516Z,15.10
2019-02-23T12:22:50.317Z,14.28
2019-02-23T12:25:23.816Z,15.45
2019-02-23T12:27:58.228Z,15.93
2019-02-23T12:30:32.844Z,12.53
2019-02-23T12:33:06.687Z,13.45
2019-02-23T12:35:40.048Z,13.75
2019-02-23T12:38:13.599Z,13.28
2019-02-23T12:40:47.543Z,14.13
2019-02-23T12:43:20.648Z,12.35
2019-02-23T12:45:54.040Z,13.25
2019-02-23T12:48:28.650Z,14.28
2019-02-23T12:51:02.264Z,13.43
2019-02-23T12:53:34.965Z,11.33
2019-02-23T12:56:09.247Z,14.28
2019-02-23T12:58:42.883Z,12.70
2019-02-23T13:01:15.546Z,12.50
2019-02-23T13:03:48.126Z,11.78
2019-02-23T13:06:21.432Z,13.75
2019-02-23T13:09:20.723Z,12.80
2019-02-23T13:12:14.543Z,13.50
2019-02-23T13:15:11.985Z,13.00
2019-02-23T13:18:28.603Z,13.58
2019-02-23T13:21:22.464Z,13.75
2019-02-23T13:24:34.552Z,14.63
2019-02-23T13:27:22.521Z,13.90
2019-02-23T13:30:53.459Z,13.43
2019-02-23T13:34:32.601Z,14.50
2019-02-23T13:37:41.305Z,15.72
2019-02-23T13:40:49.156Z,14.45
2019-02-23T13:44:09.919Z,14.50
2019-02-23T13:47:17.614Z,16.90
2019-02-23T13:50:01.691Z,15.50
2019-02-23T13:52:47.057Z,15.15
2019-02-23T13:56:03.894Z,17.05
2019-02-23T13:58:47.926Z,16.10
2019-02-23T14:02:00.811Z,16.10
2019-02-23T21:53:51.389Z,13.65
2019-02-23T21:56:26.160Z,13.22
2019-02-23T21:59:03.442Z,14.18
2019-02-23T22:01:39.780Z,13.78
2019-02-23T22:04:13.801Z,13.03
2019-02-23T22:06:48.530Z,14.87
2019-02-23T22:09:21.839Z,13.03
2019-02-23T22:11:54.946Z,14.53
2019-02-23T22:14:28.761Z,13.05
2019-02-23T22:17:03.915Z,11.80
2019-02-23T22:19:37.744Z,13.20
2019-02-23T22:22:11.693Z,14.58
2019-02-23T22:24:44.992Z,15.20
2019-02-23T22:27:29.177Z,13.03
2019-02-23T22:29:57.128Z,13.60
2019-02-23T22:32:32.286Z,13.30
2019-02-23T22:35:05.997Z,13.60
2019-02-23T22:37:39.180Z,11.73
2019-02-23T22:40:12.245Z,13.80
2019-02-23T22:42:45.738Z,12.65
2019-02-23T22:45:20.150Z,13.53
2019-02-23T22:47:53.908Z,13.18
2019-02-23T22:50:27.604Z,12.68
2019-02-23T22:53:04.080Z,14.10
2019-02-23T22:55:36.848Z,13.88
2019-02-23T22:58:10.400Z,12.80
2019-02-23T23:00:53.794Z,14.45
2019-02-23T23:03:31.666Z,12.18
2019-02-23T23:06:05.032Z,14.07
2019-02-23T23:08:38.702Z,14.28
2019-02-23T23:11:13.570Z,11.38
2019-02-23T23:13:49.285Z,13.60
2019-02-23T23:16:23.861Z,12.35
2019-02-23T23:18:57.437Z,13.88
2019-02-23T23:21:31.662Z,13.30
2019-02-23T23:24:05.214Z,13.75
2019-02-23T23:26:43.041Z,13.58
2019-02-23T23:29:15.819Z,13.90
2019-02-23T23:31:49.228Z,12.50
2019-02-23T23:34:25.896Z,12.18
2019-02-23T23:37:00.270Z,12.53
2019-02-23T23:39:35.838Z,14.18
2019-02-23T23:42:08.569Z,14.70
2019-02-23T23:44:42.461Z,13.40
2019-02-23T23:47:15.920Z,12.75
2019-02-23T23:49:49.657Z,13.35
2019-02-23T23:52:22.763Z,12.15
2019-02-23T23:54:56.155Z,12.80
2019-02-23T23:57:32.890Z,12.30
